sensor_id;sensor_type;location;lat;lon;timestamp;P1;durP1;ratioP1;P2;durP2;ratioP2
28447;SDS011;15675;52.870;-1.416;2024-03-23T00:53:40;18.88;;;17.77;;
28447;SDS011;15675;52.870;-1.416;2024-03-23T00:56:06;18.13;;;17.08;;
28447;SDS011;15675;52.870;-1.416;2024-03-23T00:58:32;17.38;;;16.40;;
28447;SDS011;15675;52.870;-1.416;2024-03-23T01:00:58;18.30;;;16.83;;
28447;SDS011;15675;52.870;-1.416;2024-03-23T01:03:27;19.08;;;18.08;;
28447;SDS011;15675;52.870;-1.416;2024-03-23T01:06:50;17.83;;;16.80;;
28447;SDS011;15675;52.870;-1.416;2024-03-23T01:09:15;18.98;;;17.70;;
28447;SDS011;15675;52.870;-1.416;2024-03-23T01:11:41;17.67;;;16.70;;
28447;SDS011;15675;52.870;-1.416;2024-03-23T01:14:06;18.30;;;17.35;;
28447;SDS011;15675;52.870;-1.416;2024-03-23T01:16:32;18.05;;;16.75;;
28447;SDS011;15675;52.870;-1.416;2024-03-23T01:18:58;18.90;;;17.55;;
28447;SDS011;15675;52.870;-1.416;2024-03-23T01:21:23;18.50;;;17.15;;
28447;SDS011;15675;52.870;-1.416;2024-03-23T01:23:49;18.92;;;17.20;;
28447;SDS011;15675;52.870;-1.416;2024-03-23T01:26:14;19.00;;;17.90;;
28447;SDS011;15675;52.870;-1.416;2024-03-23T01:28:40;18.25;;;17.08;;
28447;SDS011;15675;52.870;-1.416;2024-03-23T01:31:05;19.58;;;17.58;;
28447;SDS011;15675;52.870;-1.416;2024-03-23T01:33:31;19.58;;;16.30;;
28447;SDS011;15675;52.870;-1.416;2024-03-23T01:35:56;19.02;;;17.35;;
28447;SDS011;15675;52.870;-1.416;2024-03-23T01:38:22;17.38;;;16.58;;
28447;SDS011;15675;52.870;-1.416;2024-03-23T01:40:47;20.75;;;18.65;;
28447;SDS011;15675;52.870;-1.416;2024-03-23T01:43:13;22.08;;;17.60;;
28447;SDS011;15675;52.870;-1.416;2024-03-23T01:45:38;19.85;;;18.30;;
28447;SDS011;15675;52.870;-1.416;2024-03-23T01:48:05;22.67;;;19.55;;
28447;SDS011;15675;52.870;-1.416;2024-03-23T01:50:31;18.63;;;17.40;;
28447;SDS011;15675;52.870;-1.416;2024-03-23T01:53:02;19.92;;;17.88;;
28447;SDS011;15675;52.870;-1.416;2024-03-23T01:55:31;18.80;;;17.40;;
28447;SDS011;15675;52.870;-1.416;2024-03-23T01:57:57;19.52;;;18.13;;
28447;SDS011;15675;52.870;-1.416;2024-03-23T02:00:23;21.25;;;19.67;;
28447;SDS011;15675;52.870;-1.416;2024-03-23T02:02:48;18.88;;;17.70;;
28447;SDS011;15675;52.870;-1.416;2024-03-23T02:05:14;19.80;;;18.40;;
28447;SDS011;15675;52.870;-1.416;2024-03-23T02:07:40;20.23;;;18.35;;
28447;SDS011;15675;52.870;-1.416;2024-03-23T02:10:08;20.70;;;19.35;;
28447;SDS011;15675;52.870;-1.416;2024-03-23T02:12:43;20.88;;;19.52;;
28447;SDS011;15675;52.870;-1.416;2024-03-23T02:15:09;20.23;;;18.88;;
28447;SDS011;15675;52.870;-1.416;2024-03-23T02:17:35;19.55;;;18.13;;
28447;SDS011;15675;52.870;-1.416;2024-03-23T02:20:01;22.00;;;20.10;;
28447;SDS011;15675;52.870;-1.416;2024-03-23T02:22:35;20.85;;;19.70;;
28447;SDS011;15675;52.870;-1.416;2024-03-23T02:25:01;22.88;;;21.10;;
28447;SDS011;15675;52.870;-1.416;2024-03-23T02:27:28;21.73;;;20.35;;
28447;SDS011;15675;52.870;-1.416;2024-03-23T02:29:53;22.27;;;20.65;;
28447;SDS011;15675;52.870;-1.416;2024-03-23T02:32:19;23.98;;;22.08;;
28447;SDS011;15675;52.870;-1.416;2024-03-23T02:34:44;21.60;;;20.42;;
28447;SDS011;15675;52.870;-1.416;2024-03-23T02:37:10;22.15;;;20.90;;
28447;SDS011;15675;52.870;-1.416;2024-03-23T02:39:37;24.55;;;22.90;;
28447;SDS011;15675;52.870;-1.416;2024-03-23T02:42:02;24.90;;;22.92;;
28447;SDS011;15675;52.870;-1.416;2024-03-23T02:44:28;25.10;;;23.05;;
28447;SDS011;15675;52.870;-1.416;2024-03-23T02:46:53;22.15;;;20.95;;
28447;SDS011;15675;52.870;-1.416;2024-03-23T02:49:19;26.55;;;24.58;;
28447;SDS011;15675;52.870;-1.416;2024-03-23T02:51:46;26.08;;;24.25;;
28447;SDS011;15675;52.870;-1.416;2024-03-23T02:54:13;24.35;;;23.15;;
28447;SDS011;15675;52.870;-1.416;2024-03-23T02:56:39;24.88;;;23.02;;
28447;SDS011;15675;52.870;-1.416;2024-03-23T02:59:05;26.05;;;23.88;;
28447;SDS011;15675;52.870;-1.416;2024-03-23T03:01:30;24.70;;;22.65;;
28447;SDS011;15675;52.870;-1.416;2024-03-23T03:03:56;26.15;;;24.60;;
28447;SDS011;15675;52.870;-1.416;2024-03-23T03:06:25;26.13;;;24.58;;
28447;SDS011;15675;52.870;-1.416;2024-03-23T03:08:51;25.40;;;23.35;;
28447;SDS011;15675;52.870;-1.416;2024-03-23T03:11:16;25.67;;;23.17;;
28447;SDS011;15675;52.870;-1.416;2024-03-23T03:13:42;25.77;;;24.23;;
28447;SDS011;15675;52.870;-1.416;2024-03-23T03:16:11;27.25;;;25.40;;
28447;SDS011;15675;52.870;-1.416;2024-03-23T03:18:36;24.50;;;23.00;;
28447;SDS011;15675;52.870;-1.416;2024-03-23T03:21:03;26.48;;;24.38;;
28447;SDS011;15675;52.870;-1.416;2024-03-23T03:23:31;23.55;;;21.75;;
28447;SDS011;15675;52.870;-1.416;2024-03-23T03:25:56;23.40;;;21.70;;
28447;SDS011;15675;52.870;-1.416;2024-03-23T03:28:22;24.88;;;23.25;;
28447;SDS011;15675;52.870;-1.416;2024-03-23T03:30:47;24.08;;;22.27;;
28447;SDS011;15675;52.870;-1.416;2024-03-23T03:33:13;22.25;;;20.75;;
28447;SDS011;15675;52.870;-1.416;2024-03-23T03:35:38;21.60;;;20.05;;
28447;SDS011;15675;52.870;-1.416;2024-03-23T03:38:04;24.83;;;23.08;;
28447;SDS011;15675;52.870;-1.416;2024-03-23T03:40:30;20.98;;;19.88;;
28447;SDS011;15675;52.870;-1.416;2024-03-23T03:42:55;21.15;;;19.33;;
28447;SDS011;15675;52.870;-1.416;2024-03-23T03:45:21;21.38;;;20.08;;
28447;SDS011;15675;52.870;-1.416;2024-03-23T03:47:46;21.42;;;20.13;;
28447;SDS011;15675;52.870;-1.416;2024-03-23T03:50:12;21.55;;;20.33;;
28447;SDS011;15675;52.870;-1.416;2024-03-23T03:52:38;19.58;;;18.58;;
28447;SDS011;15675;52.870;-1.416;2024-03-23T03:55:03;20.45;;;19.35;;
28447;SDS011;15675;52.870;-1.416;2024-03-23T03:57:36;26.60;;;18.77;;
28447;SDS011;15675;52.870;-1.416;2024-03-23T04:00:01;19.58;;;18.02;;
28447;SDS011;15675;52.870;-1.416;2024-03-23T04:02:27;21.30;;;19.63;;
28447;SDS011;15675;52.870;-1.416;2024-03-23T04:04:52;21.05;;;19.58;;
28447;SDS011;15675;52.870;-1.416;2024-03-23T04:07:18;20.20;;;18.92;;
28447;SDS011;15675;52.870;-1.416;2024-03-23T04:09:45;24.17;;;20.23;;
28447;SDS011;15675;52.870;-1.416;2024-03-23T04:12:11;19.60;;;18.50;;
28447;SDS011;15675;52.870;-1.416;2024-03-23T04:14:36;21.48;;;20.27;;
28447;SDS011;15675;52.870;-1.416;2024-03-23T04:17:02;18.70;;;17.55;;
28447;SDS011;15675;52.870;-1.416;2024-03-23T04:19:27;18.27;;;17.23;;
28447;SDS011;15675;52.870;-1.416;2024-03-23T04:21:53;20.08;;;18.30;;
28447;SDS011;15675;52.870;-1.416;2024-03-23T04:24:19;18.70;;;17.52;;
28447;SDS011;15675;52.870;-1.416;2024-03-23T04:26:46;19.48;;;18.30;;
28447;SDS011;15675;52.870;-1.416;2024-03-23T04:29:11;19.98;;;18.67;;
28447;SDS011;15675;52.870;-1.416;2024-03-23T04:31:37;21.67;;;19.85;;
28447;SDS011;15675;52.870;-1.416;2024-03-23T04:34:03;21.13;;;19.75;;
28447;SDS011;15675;52.870;-1.416;2024-03-23T04:36:29;21.08;;;19.67;;
28447;SDS011;15675;52.870;-1.416;2024-03-23T04:38:56;20.90;;;19.45;;
28447;SDS011;15675;52.870;-1.416;2024-03-23T04:41:22;23.63;;;21.75;;
28447;SDS011;15675;52.870;-1.416;2024-03-23T04:43:47;21.90;;;20.05;;
28447;SDS011;15675;52.870;-1.416;2024-03-23T04:46:13;23.50;;;21.75;;
28447;SDS011;15675;52.870;-1.416;2024-03-23T04:48:38;22.08;;;20.30;;
28447;SDS011;15675;52.870;-1.416;2024-03-23T04:51:04;24.42;;;22.83;;
28447;SDS011;15675;52.870;-1.416;2024-03-23T04:53:29;22.25;;;21.05;;
28447;SDS011;15675;52.870;-1.416;2024-03-23T04:55:55;23.55;;;22.08;;
28447;SDS011;15675;52.870;-1.416;2024-03-23T04:58:24;23.58;;;21.65;;
28447;SDS011;15675;52.870;-1.416;2024-03-23T05:00:54;24.50;;;23.10;;
28447;SDS011;15675;52.870;-1.416;2024-03-23T05:03:20;27.15;;;24.90;;
28447;SDS011;15675;52.870;-1.416;2024-03-23T05:05:46;24.25;;;22.52;;
28447;SDS011;15675;52.870;-1.416;2024-03-23T05:08:15;29.08;;;26.90;;
28447;SDS011;15675;52.870;-1.416;2024-03-23T05:10:42;24.17;;;22.85;;
28447;SDS011;15675;52.870;-1.416;2024-03-23T05:13:08;23.30;;;21.90;;
28447;SDS011;15675;52.870;-1.416;2024-03-23T05:15:34;24.77;;;23.40;;
28447;SDS011;15675;52.870;-1.416;2024-03-23T05:18:00;26.00;;;23.35;;
28447;SDS011;15675;52.870;-1.416;2024-03-23T05:20:25;26.95;;;24.40;;
28447;SDS011;15675;52.870;-1.416;2024-03-23T05:22:51;27.25;;;24.85;;
28447;SDS011;15675;52.870;-1.416;2024-03-23T05:25:16;26.42;;;24.25;;
28447;SDS011;15675;52.870;-1.416;2024-03-23T05:27:42;26.63;;;24.92;;
28447;SDS011;15675;52.870;-1.416;2024-03-23T05:30:07;24.73;;;23.10;;
28447;SDS011;15675;52.870;-1.416;2024-03-23T05:32:34;24.52;;;23.33;;
28447;SDS011;15675;52.870;-1.416;2024-03-23T05:35:00;26.58;;;24.50;;
28447;SDS011;15675;52.870;-1.416;2024-03-23T05:37:25;24.67;;;23.00;;
28447;SDS011;15675;52.870;-1.416;2024-03-23T05:39:51;24.45;;;22.85;;
28447;SDS011;15675;52.870;-1.416;2024-03-23T05:42:17;25.45;;;23.48;;
28447;SDS011;15675;52.870;-1.416;2024-03-23T05:44:43;25.80;;;23.92;;
28447;SDS011;15675;52.870;-1.416;2024-03-23T05:47:10;24.50;;;22.60;;
28447;SDS011;15675;52.870;-1.416;2024-03-23T05:49:37;24.90;;;23.42;;
28447;SDS011;15675;52.870;-1.416;2024-03-23T05:52:03;26.75;;;23.52;;
28447;SDS011;15675;52.870;-1.416;2024-03-23T05:54:29;25.13;;;23.70;;
28447;SDS011;15675;52.870;-1.416;2024-03-23T05:56:55;25.38;;;23.83;;
28447;SDS011;15675;52.870;-1.416;2024-03-23T05:59:20;24.95;;;23.70;;
28447;SDS011;15675;52.870;-1.416;2024-03-23T06:01:49;25.92;;;23.35;;
28447;SDS011;15675;52.870;-1.416;2024-03-23T06:04:14;25.92;;;23.95;;
28447;SDS011;15675;52.870;-1.416;2024-03-23T06:06:40;25.15;;;23.33;;
28447;SDS011;15675;52.870;-1.416;2024-03-23T06:09:05;25.08;;;23.73;;
28447;SDS011;15675;52.870;-1.416;2024-03-23T06:11:31;28.50;;;27.10;;
28447;SDS011;15675;52.870;-1.416;2024-03-23T06:13:56;27.45;;;25.63;;
28447;SDS011;15675;52.870;-1.416;2024-03-23T06:16:22;25.02;;;23.40;;
28447;SDS011;15675;52.870;-1.416;2024-03-23T06:18:52;24.52;;;23.20;;
28447;SDS011;15675;52.870;-1.416;2024-03-23T06:21:17;31.48;;;29.77;;
28447;SDS011;15675;52.870;-1.416;2024-03-23T06:23:44;39.17;;;36.13;;
28447;SDS011;15675;52.870;-1.416;2024-03-23T06:26:17;24.85;;;23.05;;
28447;SDS011;15675;52.870;-1.416;2024-03-23T06:28:43;26.90;;;25.35;;
28447;SDS011;15675;52.870;-1.416;2024-03-23T06:31:11;25.23;;;23.73;;
28447;SDS011;15675;52.870;-1.416;2024-03-23T06:33:37;25.35;;;23.77;;
28447;SDS011;15675;52.870;-1.416;2024-03-23T06:36:03;26.38;;;24.60;;
28447;SDS011;15675;52.870;-1.416;2024-03-23T06:38:30;26.63;;;24.67;;
28447;SDS011;15675;52.870;-1.416;2024-03-23T06:40:55;29.95;;;28.33;;
28447;SDS011;15675;52.870;-1.416;2024-03-23T06:43:21;26.52;;;24.73;;
28447;SDS011;15675;52.870;-1.416;2024-03-23T06:45:52;32.08;;;29.23;;
28447;SDS011;15675;52.870;-1.416;2024-03-23T06:48:19;26.92;;;24.88;;
28447;SDS011;15675;52.870;-1.416;2024-03-23T06:50:45;28.63;;;27.23;;
28447;SDS011;15675;52.870;-1.416;2024-03-23T06:53:14;22.52;;;21.42;;
28447;SDS011;15675;52.870;-1.416;2024-03-23T06:55:40;23.27;;;21.75;;
28447;SDS011;15675;52.870;-1.416;2024-03-23T06:58:05;24.63;;;23.20;;
28447;SDS011;15675;52.870;-1.416;2024-03-23T07:00:31;24.20;;;22.25;;
28447;SDS011;15675;52.870;-1.416;2024-03-23T07:03:00;23.75;;;22.25;;
28447;SDS011;15675;52.870;-1.416;2024-03-23T07:05:25;22.45;;;21.25;;
28447;SDS011;15675;52.870;-1.416;2024-03-23T07:07:51;22.48;;;21.02;;
28447;SDS011;15675;52.870;-1.416;2024-03-23T07:10:17;21.75;;;20.35;;
28447;SDS011;15675;52.870;-1.416;2024-03-23T07:12:43;27.08;;;25.48;;
28447;SDS011;15675;52.870;-1.416;2024-03-23T07:15:08;20.23;;;19.13;;
28447;SDS011;15675;52.870;-1.416;2024-03-23T07:17:34;24.33;;;22.05;;
28447;SDS011;15675;52.870;-1.416;2024-03-23T07:20:00;19.83;;;18.83;;
28447;SDS011;15675;52.870;-1.416;2024-03-23T07:22:32;21.40;;;20.27;;
28447;SDS011;15675;52.870;-1.416;2024-03-23T07:25:00;19.10;;;17.73;;
28447;SDS011;15675;52.870;-1.416;2024-03-23T07:27:26;18.30;;;16.88;;
28447;SDS011;15675;52.870;-1.416;2024-03-23T07:29:51;21.02;;;18.92;;
28447;SDS011;15675;52.870;-1.416;2024-03-23T07:32:17;17.70;;;16.77;;
28447;SDS011;15675;52.870;-1.416;2024-03-23T07:34:43;16.15;;;15.35;;
28447;SDS011;15675;52.870;-1.416;2024-03-23T07:37:09;17.83;;;16.63;;
28447;SDS011;15675;52.870;-1.416;2024-03-23T07:39:35;18.10;;;14.95;;
28447;SDS011;15675;52.870;-1.416;2024-03-23T07:42:01;15.38;;;14.27;;
28447;SDS011;15675;52.870;-1.416;2024-03-23T07:44:27;13.73;;;12.82;;
28447;SDS011;15675;52.870;-1.416;2024-03-23T07:46:52;17.27;;;14.23;;
28447;SDS011;15675;52.870;-1.416;2024-03-23T07:49:17;15.93;;;15.02;;
28447;SDS011;15675;52.870;-1.416;2024-03-23T07:51:43;18.73;;;17.50;;
28447;SDS011;15675;52.870;-1.416;2024-03-23T07:54:10;16.77;;;15.57;;
28447;SDS011;15675;52.870;-1.416;2024-03-23T07:56:35;16.30;;;15.18;;
28447;SDS011;15675;52.870;-1.416;2024-03-23T07:59:01;18.63;;;17.48;;
28447;SDS011;15675;52.870;-1.416;2024-03-23T08:01:28;12.43;;;11.75;;
28447;SDS011;15675;52.870;-1.416;2024-03-23T08:03:54;14.68;;;13.50;;
28447;SDS011;15675;52.870;-1.416;2024-03-23T08:06:20;13.60;;;12.90;;
28447;SDS011;15675;52.870;-1.416;2024-03-23T08:08:47;14.98;;;14.15;;
28447;SDS011;15675;52.870;-1.416;2024-03-23T08:11:14;14.98;;;13.82;;
28447;SDS011;15675;52.870;-1.416;2024-03-23T08:13:41;17.20;;;15.93;;
28447;SDS011;15675;52.870;-1.416;2024-03-23T08:16:07;14.52;;;13.20;;
28447;SDS011;15675;52.870;-1.416;2024-03-23T08:18:36;16.20;;;14.82;;
28447;SDS011;15675;52.870;-1.416;2024-03-23T08:21:02;15.65;;;14.85;;
28447;SDS011;15675;52.870;-1.416;2024-03-23T08:23:29;14.30;;;13.05;;
28447;SDS011;15675;52.870;-1.416;2024-03-23T08:25:59;14.20;;;13.07;;
28447;SDS011;15675;52.870;-1.416;2024-03-23T08:28:26;14.88;;;13.68;;
28447;SDS011;15675;52.870;-1.416;2024-03-23T08:30:52;17.42;;;15.50;;
28447;SDS011;15675;52.870;-1.416;2024-03-23T08:33:19;16.83;;;15.43;;
28447;SDS011;15675;52.870;-1.416;2024-03-23T08:35:57;13.73;;;12.63;;
28447;SDS011;15675;52.870;-1.416;2024-03-23T08:38:24;15.40;;;14.23;;
28447;SDS011;15675;52.870;-1.416;2024-03-23T08:40:57;13.40;;;12.55;;
28447;SDS011;15675;52.870;-1.416;2024-03-23T08:43:23;18.08;;;16.98;;
28447;SDS011;15675;52.870;-1.416;2024-03-23T08:45:49;13.50;;;12.10;;
28447;SDS011;15675;52.870;-1.416;2024-03-23T08:48:14;12.75;;;11.85;;
28447;SDS011;15675;52.870;-1.416;2024-03-23T08:50:40;12.20;;;11.18;;
28447;SDS011;15675;52.870;-1.416;2024-03-23T08:53:05;13.82;;;12.93;;
28447;SDS011;15675;52.870;-1.416;2024-03-23T08:55:30;13.90;;;10.55;;
28447;SDS011;15675;52.870;-1.416;2024-03-23T08:57:56;13.05;;;9.82;;
28447;SDS011;15675;52.870;-1.416;2024-03-23T09:00:21;11.43;;;10.63;;
28447;SDS011;15675;52.870;-1.416;2024-03-23T09:02:47;13.13;;;11.50;;
28447;SDS011;15675;52.870;-1.416;2024-03-23T09:05:13;11.60;;;10.55;;
28447;SDS011;15675;52.870;-1.416;2024-03-23T09:07:39;11.80;;;10.88;;
28447;SDS011;15675;52.870;-1.416;2024-03-23T09:10:04;10.75;;;10.15;;
28447;SDS011;15675;52.870;-1.416;2024-03-23T09:12:30;10.30;;;9.32;;
28447;SDS011;15675;52.870;-1.416;2024-03-23T09:14:55;12.43;;;9.63;;
28447;SDS011;15675;52.870;-1.416;2024-03-23T09:17:21;14.77;;;14.00;;
28447;SDS011;15675;52.870;-1.416;2024-03-23T09:19:46;11.32;;;10.50;;
28447;SDS011;15675;52.870;-1.416;2024-03-23T09:22:12;14.15;;;13.38;;
28447;SDS011;15675;52.870;-1.416;2024-03-23T09:24:38;10.35;;;9.50;;
28447;SDS011;15675;52.870;-1.416;2024-03-23T09:27:04;11.85;;;8.95;;
28447;SDS011;15675;52.870;-1.416;2024-03-23T09:29:29;11.95;;;11.02;;
28447;SDS011;15675;52.870;-1.416;2024-03-23T09:31:55;11.02;;;9.18;;
28447;SDS011;15675;52.870;-1.416;2024-03-23T09:34:20;9.45;;;8.75;;
28447;SDS011;15675;52.870;-1.416;2024-03-23T09:36:46;9.70;;;8.32;;
28447;SDS011;15675;52.870;-1.416;2024-03-23T09:39:12;8.80;;;7.97;;
28447;SDS011;15675;52.870;-1.416;2024-03-23T09:41:39;15.85;;;9.02;;
28447;SDS011;15675;52.870;-1.416;2024-03-23T09:44:04;9.82;;;9.05;;
28447;SDS011;15675;52.870;-1.416;2024-03-23T09:46:30;12.77;;;9.20;;
28447;SDS011;15675;52.870;-1.416;2024-03-23T09:48:59;10.13;;;9.40;;
28447;SDS011;15675;52.870;-1.416;2024-03-23T09:51:26;8.90;;;8.38;;
28447;SDS011;15675;52.870;-1.416;2024-03-23T09:53:51;11.20;;;10.07;;
28447;SDS011;15675;52.870;-1.416;2024-03-23T09:56:18;8.80;;;8.10;;
28447;SDS011;15675;52.870;-1.416;2024-03-23T09:58:43;12.68;;;8.50;;
28447;SDS011;15675;52.870;-1.416;2024-03-23T10:01:09;13.10;;;12.23;;
28447;SDS011;15675;52.870;-1.416;2024-03-23T10:03:43;9.88;;;9.00;;
28447;SDS011;15675;52.870;-1.416;2024-03-23T10:06:11;8.95;;;8.07;;
28447;SDS011;15675;52.870;-1.416;2024-03-23T10:08:36;9.77;;;8.82;;
28447;SDS011;15675;52.870;-1.416;2024-03-23T10:11:14;14.20;;;8.15;;
28447;SDS011;15675;52.870;-1.416;2024-03-23T10:13:42;10.38;;;9.52;;
28447;SDS011;15675;52.870;-1.416;2024-03-23T10:16:08;10.05;;;9.40;;
28447;SDS011;15675;52.870;-1.416;2024-03-23T10:18:38;8.25;;;7.85;;
28447;SDS011;15675;52.870;-1.416;2024-03-23T10:23:34;8.10;;;7.63;;
28447;SDS011;15675;52.870;-1.416;2024-03-23T10:26:22;9.57;;;8.88;;
28447;SDS011;15675;52.870;-1.416;2024-03-23T10:31:15;9.15;;;8.65;;
28447;SDS011;15675;52.870;-1.416;2024-03-23T10:33:44;9.93;;;9.40;;
28447;SDS011;15675;52.870;-1.416;2024-03-23T10:36:13;11.30;;;10.65;;
28447;SDS011;15675;52.870;-1.416;2024-03-23T10:38:43;16.98;;;14.45;;
28447;SDS011;15675;52.870;-1.416;2024-03-23T10:41:12;13.45;;;12.13;;
28447;SDS011;15675;52.870;-1.416;2024-03-23T10:43:38;13.10;;;12.30;;
28447;SDS011;15675;52.870;-1.416;2024-03-23T10:46:04;12.85;;;11.77;;
28447;SDS011;15675;52.870;-1.416;2024-03-23T10:48:32;14.40;;;12.98;;
28447;SDS011;15675;52.870;-1.416;2024-03-23T10:50:58;12.63;;;11.63;;
28447;SDS011;15675;52.870;-1.416;2024-03-23T10:53:25;12.48;;;11.77;;
28447;SDS011;15675;52.870;-1.416;2024-03-23T10:55:51;12.95;;;12.02;;
28447;SDS011;15675;52.870;-1.416;2024-03-23T10:58:19;12.60;;;11.68;;
28447;SDS011;15675;52.870;-1.416;2024-03-23T11:00:49;12.25;;;11.38;;
28447;SDS011;15675;52.870;-1.416;2024-03-23T11:03:31;13.13;;;11.98;;
28447;SDS011;15675;52.870;-1.416;2024-03-23T11:05:57;13.00;;;11.68;;
28447;SDS011;15675;52.870;-1.416;2024-03-23T11:08:35;13.02;;;11.98;;
28447;SDS011;15675;52.870;-1.416;2024-03-23T11:13:48;12.40;;;11.60;;
28447;SDS011;15675;52.870;-1.416;2024-03-23T11:16:15;15.05;;;13.98;;
28447;SDS011;15675;52.870;-1.416;2024-03-23T11:18:58;13.10;;;12.40;;
28447;SDS011;15675;52.870;-1.416;2024-03-23T11:22:00;15.40;;;14.48;;
28447;SDS011;15675;52.870;-1.416;2024-03-23T11:24:26;16.23;;;15.38;;
28447;SDS011;15675;52.870;-1.416;2024-03-23T11:26:52;17.67;;;16.23;;
28447;SDS011;15675;52.870;-1.416;2024-03-23T11:29:17;16.45;;;15.50;;
28447;SDS011;15675;52.870;-1.416;2024-03-23T11:31:49;16.58;;;15.73;;
28447;SDS011;15675;52.870;-1.416;2024-03-23T11:34:17;16.50;;;15.60;;
28447;SDS011;15675;52.870;-1.416;2024-03-23T11:36:46;13.80;;;13.00;;
28447;SDS011;15675;52.870;-1.416;2024-03-23T11:39:16;13.73;;;12.85;;
28447;SDS011;15675;52.870;-1.416;2024-03-23T11:41:46;13.25;;;12.45;;
28447;SDS011;15675;52.870;-1.416;2024-03-23T11:44:16;12.70;;;12.10;;
28447;SDS011;15675;52.870;-1.416;2024-03-23T11:46:45;13.93;;;13.23;;
28447;SDS011;15675;52.870;-1.416;2024-03-23T11:49:21;11.95;;;11.25;;
28447;SDS011;15675;52.870;-1.416;2024-03-23T11:51:55;13.30;;;12.15;;
28447;SDS011;15675;52.870;-1.416;2024-03-23T11:54:22;12.13;;;11.40;;
28447;SDS011;15675;52.870;-1.416;2024-03-23T11:56:55;11.48;;;10.88;;
28447;SDS011;15675;52.870;-1.416;2024-03-23T12:02:00;18.20;;;17.25;;
28447;SDS011;15675;52.870;-1.416;2024-03-23T12:04:31;14.88;;;14.18;;
28447;SDS011;15675;52.870;-1.416;2024-03-23T12:09:34;12.88;;;12.27;;
28447;SDS011;15675;52.870;-1.416;2024-03-23T12:12:05;14.98;;;13.90;;
28447;SDS011;15675;52.870;-1.416;2024-03-23T12:14:34;13.30;;;12.20;;
28447;SDS011;15675;52.870;-1.416;2024-03-23T12:17:09;12.10;;;11.50;;
28447;SDS011;15675;52.870;-1.416;2024-03-23T12:19:36;17.15;;;15.65;;
28447;SDS011;15675;52.870;-1.416;2024-03-23T12:22:02;12.85;;;12.15;;
28447;SDS011;15675;52.870;-1.416;2024-03-23T12:24:29;15.02;;;13.55;;
28447;SDS011;15675;52.870;-1.416;2024-03-23T12:26:54;14.32;;;13.13;;
28447;SDS011;15675;52.870;-1.416;2024-03-23T12:29:20;13.98;;;12.82;;
28447;SDS011;15675;52.870;-1.416;2024-03-23T12:31:46;15.13;;;14.23;;
28447;SDS011;15675;52.870;-1.416;2024-03-23T12:34:11;13.02;;;12.15;;
28447;SDS011;15675;52.870;-1.416;2024-03-23T12:36:37;14.43;;;12.35;;
28447;SDS011;15675;52.870;-1.416;2024-03-23T12:39:02;17.45;;;16.50;;
28447;SDS011;15675;52.870;-1.416;2024-03-23T12:41:28;16.90;;;15.80;;
28447;SDS011;15675;52.870;-1.416;2024-03-23T12:43:53;11.98;;;11.25;;
28447;SDS011;15675;52.870;-1.416;2024-03-23T12:46:18;13.20;;;12.10;;
28447;SDS011;15675;52.870;-1.416;2024-03-23T12:48:44;11.93;;;11.13;;
28447;SDS011;15675;52.870;-1.416;2024-03-23T12:51:10;12.52;;;11.82;;
28447;SDS011;15675;52.870;-1.416;2024-03-23T12:53:35;9.55;;;8.88;;
28447;SDS011;15675;52.870;-1.416;2024-03-23T12:56:01;10.40;;;9.52;;
28447;SDS011;15675;52.870;-1.416;2024-03-23T12:58:26;9.77;;;9.27;;
28447;SDS011;15675;52.870;-1.416;2024-03-23T13:00:52;9.27;;;8.70;;
28447;SDS011;15675;52.870;-1.416;2024-03-23T13:03:17;10.13;;;9.02;;
28447;SDS011;15675;52.870;-1.416;2024-03-23T13:05:43;13.07;;;12.18;;
28447;SDS011;15675;52.870;-1.416;2024-03-23T13:08:08;9.77;;;9.18;;
28447;SDS011;15675;52.870;-1.416;2024-03-23T13:10:34;11.82;;;11.23;;
28447;SDS011;15675;52.870;-1.416;2024-03-23T13:12:59;13.07;;;12.20;;
28447;SDS011;15675;52.870;-1.416;2024-03-23T13:15:25;7.60;;;7.20;;
28447;SDS011;15675;52.870;-1.416;2024-03-23T13:17:50;12.90;;;12.15;;
28447;SDS011;15675;52.870;-1.416;2024-03-23T13:20:17;7.95;;;7.43;;
28447;SDS011;15675;52.870;-1.416;2024-03-23T13:22:43;17.02;;;16.13;;
28447;SDS011;15675;52.870;-1.416;2024-03-23T13:25:09;8.48;;;8.00;;
28447;SDS011;15675;52.870;-1.416;2024-03-23T13:27:34;8.50;;;6.90;;
28447;SDS011;15675;52.870;-1.416;2024-03-23T13:30:00;8.27;;;7.88;;
28447;SDS011;15675;52.870;-1.416;2024-03-23T13:32:25;8.00;;;7.32;;
28447;SDS011;15675;52.870;-1.416;2024-03-23T13:34:51;11.60;;;7.22;;
28447;SDS011;15675;52.870;-1.416;2024-03-23T13:37:17;8.05;;;7.55;;
28447;SDS011;15675;52.870;-1.416;2024-03-23T13:39:43;6.88;;;6.32;;
28447;SDS011;15675;52.870;-1.416;2024-03-23T13:42:08;8.20;;;6.57;;
28447;SDS011;15675;52.870;-1.416;2024-03-23T13:44:34;7.70;;;6.97;;
28447;SDS011;15675;52.870;-1.416;2024-03-23T13:46:59;7.25;;;6.65;;
28447;SDS011;15675;52.870;-1.416;2024-03-23T13:51:57;5.88;;;5.47;;
28447;SDS011;15675;52.870;-1.416;2024-03-23T13:54:23;9.25;;;5.57;;
28447;SDS011;15675;52.870;-1.416;2024-03-23T13:56:52;10.43;;;7.35;;
28447;SDS011;15675;52.870;-1.416;2024-03-23T13:59:19;12.52;;;11.73;;
28447;SDS011;15675;52.870;-1.416;2024-03-23T14:01:46;7.53;;;5.00;;
28447;SDS011;15675;52.870;-1.416;2024-03-23T14:04:12;8.52;;;8.13;;
28447;SDS011;15675;52.870;-1.416;2024-03-23T14:06:38;6.50;;;5.97;;
28447;SDS011;15675;52.870;-1.416;2024-03-23T14:09:04;4.40;;;4.20;;
28447;SDS011;15675;52.870;-1.416;2024-03-23T14:11:30;4.43;;;4.10;;
28447;SDS011;15675;52.870;-1.416;2024-03-23T14:13:56;5.07;;;4.68;;
28447;SDS011;15675;52.870;-1.416;2024-03-23T14:16:21;5.85;;;5.22;;
28447;SDS011;15675;52.870;-1.416;2024-03-23T14:18:47;13.25;;;4.57;;
28447;SDS011;15675;52.870;-1.416;2024-03-23T14:21:12;5.65;;;5.25;;
28447;SDS011;15675;52.870;-1.416;2024-03-23T14:23:38;13.93;;;5.82;;
28447;SDS011;15675;52.870;-1.416;2024-03-23T14:26:06;18.25;;;4.95;;
28447;SDS011;15675;52.870;-1.416;2024-03-23T14:28:31;5.15;;;3.65;;
28447;SDS011;15675;52.870;-1.416;2024-03-23T14:30:57;4.25;;;3.85;;
28447;SDS011;15675;52.870;-1.416;2024-03-23T14:33:22;6.28;;;4.32;;
28447;SDS011;15675;52.870;-1.416;2024-03-23T14:35:52;8.70;;;4.65;;
28447;SDS011;15675;52.870;-1.416;2024-03-23T14:38:19;3.95;;;3.70;;
28447;SDS011;15675;52.870;-1.416;2024-03-23T14:40:45;4.35;;;3.97;;
28447;SDS011;15675;52.870;-1.416;2024-03-23T14:43:11;4.07;;;3.65;;
28447;SDS011;15675;52.870;-1.416;2024-03-23T14:45:37;7.88;;;3.63;;
28447;SDS011;15675;52.870;-1.416;2024-03-23T14:48:02;6.97;;;5.05;;
28447;SDS011;15675;52.870;-1.416;2024-03-23T14:50:28;5.55;;;4.50;;
28447;SDS011;15675;52.870;-1.416;2024-03-23T14:52:54;6.97;;;3.88;;
28447;SDS011;15675;52.870;-1.416;2024-03-23T14:55:19;9.20;;;4.28;;
28447;SDS011;15675;52.870;-1.416;2024-03-23T14:57:45;5.22;;;4.65;;
28447;SDS011;15675;52.870;-1.416;2024-03-23T15:00:10;6.72;;;4.22;;
28447;SDS011;15675;52.870;-1.416;2024-03-23T15:02:37;7.25;;;4.00;;
28447;SDS011;15675;52.870;-1.416;2024-03-23T15:05:03;5.30;;;3.95;;
28447;SDS011;15675;52.870;-1.416;2024-03-23T15:07:38;5.70;;;3.60;;
28447;SDS011;15675;52.870;-1.416;2024-03-23T15:10:05;7.32;;;4.68;;
28447;SDS011;15675;52.870;-1.416;2024-03-23T15:12:32;5.22;;;4.75;;
28447;SDS011;15675;52.870;-1.416;2024-03-23T15:15:00;5.40;;;4.82;;
28447;SDS011;15675;52.870;-1.416;2024-03-23T15:17:26;4.50;;;3.72;;
28447;SDS011;15675;52.870;-1.416;2024-03-23T15:19:51;4.25;;;3.95;;